Time;durP1;ratioP1;P1;durP2;ratioP2;P2;SDS_P1;SDS_P2;PMS_P1;PMS_P2;Temp;Humidity;BMP_temperature;BMP_pressure;BME280_temperature;BME280_humidity;BME280_pressure;Samples;Min_cycle;Max_cycle;Signal;HPM_P1;HPM_P2
2021/07/15 00:00:16;;;;;;;;;;;;;;;;;;1029056;28;20323;-81
2021/07/15 00:00:46;;;;;;;;;;;;;;;;;;1029305;28;20288;-80
2021/07/15 00:01:17;;;;;;;;;;;;;;;;;;1029047;28;19910;-81
2021/07/15 00:01:47;;;;;;;;;;;;;;;;;;1028851;28;19917;-81
2021/07/15 00:02:17;;;;;;;;;;;;;;;;;;1028785;28;19902;-82
2021/07/15 00:02:47;;;;;;;;;;;;;;;;;;1028853;28;19917;-81
2021/07/15 00:03:18;;;;;;;;;;;;;;;;;;1028904;28;19910;-80
2021/07/15 00:03:48;;;;;;;;;;;;;;;;;;1025013;28;20348;-82
2021/07/15 00:04:18;;;;;;;;;;;;;;;;;;1021001;29;19954;-80
2021/07/15 00:04:49;;;;;;;;;;;;;;;;;;1024754;29;19911;-80
2021/07/15 00:05:19;;;;;;;;;;;;;;;;;;1024554;28;20019;-80
2021/07/15 00:05:49;;;;;;;;;;;;;;;;;;1020672;29;19918;-80
2021/07/15 00:06:19;;;;;;;;;;;;;;;;;;1020844;29;19918;-81
2021/07/15 00:06:50;;;;;;;;;;;;;;;;;;1016987;29;19911;-81
2021/07/15 00:07:20;;;;;;;;;;;;;;;;;;1016797;29;20044;-80
2021/07/15 00:07:50;;;;;;;;;;;;;;;;;;1020500;29;19950;-81
2021/07/15 00:08:21;;;;;;;;;;;;;;;;;;1028462;28;19910;-80
2021/07/15 00:08:51;;;;;;;;;;;;;;;;;;1028920;28;19918;-81
2021/07/15 00:09:21;;;;;;;;;;;;;;;;;;1025186;28;20281;-81
2021/07/15 00:09:52;;;;;;;;;;;;;;;;;;1029405;28;20014;-81
2021/07/15 00:10:22;;;;;;;;;;;;;;;;;;1024831;29;19917;-81
2021/07/15 00:10:52;;;;;;;;;;;;;;;;;;1028516;28;19907;-80
2021/07/15 00:11:22;;;;;;;;;;;;;;;;;;1032511;28;19913;-79
2021/07/15 00:11:53;;;;;;;;;;;;;;;;;;1032346;28;19905;-80
2021/07/15 00:12:23;;;;;;;;;;;;;;;;;;1028553;28;19910;-79
2021/07/15 00:12:53;;;;;;;;;;;;;;;;;;1020671;28;20356;-81
2021/07/15 00:13:23;;;;;;;;;;;;;;;;;;1020789;29;19914;-80
2021/07/15 00:13:54;;;;;;;;;;;;;;;;;;1020766;29;19911;-80
2021/07/15 00:14:24;;;;;;;;;;;;;;;;;;1024777;29;20367;-81
2021/07/15 00:14:54;;;;;;;;;;;;;;;;;;1033301;28;20008;-79
2021/07/15 00:15:24;;;;;;;;;;;;;;;;;;1029578;28;19906;-80
2021/07/15 00:15:55;;;;;;;;;;;;;;;;;;1025483;28;19946;-80
2021/07/15 00:16:25;;;;;;;;;;;;;;;;;;1017186;29;19934;-80
2021/07/15 00:16:57;;;;;;;;;;;;;;;;;;1009400;29;19912;-79
2021/07/15 00:17:27;;;;;;;;;;;;;;;;;;1017226;29;19959;-79
2021/07/15 00:17:57;;;;;;;;;;;;;;;;;;1021637;28;19930;-79
2021/07/15 00:18:28;;;;;;;;;;;;;;;;;;1029456;28;19917;-80
2021/07/15 00:18:58;;;;;;;;;;;;;;;;;;1033321;28;19910;-79
2021/07/15 00:19:29;;;;;;;;;;;;;;;;;;1033108;28;19957;-79
2021/07/15 00:19:59;;;;;;;;;;;;;;;;;;1033462;28;19913;-80
2021/07/15 00:20:29;;;;;;;;;;;;;;;;;;1033504;28;19910;-81
2021/07/15 00:20:59;;;;;;;;;;;;;;;;;;1029269;28;20491;-81
2021/07/15 00:21:30;;;;;;;;;;;;;;;;;;1029064;28;19906;-81
2021/07/15 00:22:00;;;;;;;;;;;;;;;;;;1029064;28;19922;-81
2021/07/15 00:22:30;;;;;;;;;;;;;;;;;;1029444;28;19913;-80
2021/07/15 00:23:00;;;;;;;;;;;;;;;;;;1029413;28;20030;-81
2021/07/15 00:23:31;;;;;;;;;;;;;;;;;;1029243;28;19906;-80
2021/07/15 00:24:01;;;;;;;;;;;;;;;;;;1029211;28;19925;-79
2021/07/15 00:24:31;;;;;;;;;;;;;;;;;;1033167;28;19989;-80
2021/07/15 00:25:04;;;;;;;;;;;;;;;;;;1033368;28;19957;-81
2021/07/15 00:25:34;;;;;;;;;;;;;;;;;;1033400;28;19992;-80
2021/07/15 00:26:07;;;;;;;;;;;;;;;;;;1033484;28;19906;-81
2021/07/15 00:26:37;;;;;;;;;;;;;;;;;;1033433;28;19977;-81
2021/07/15 00:27:07;;;;;;;;;;;;;;;;;;1029420;28;19910;-81
2021/07/15 00:27:38;;;;;;;;;;;;;;;;;;1022036;28;19945;-81
2021/07/15 00:28:08;;;;;;;;;;;;;;;;;;1021019;29;20300;-81
2021/07/15 00:28:38;;;;;;;;;;;;;;;;;;1017108;29;19939;-80
2021/07/15 00:29:09;;;;;;;;;;;;;;;;;;1021046;29;19915;-80
2021/07/15 00:29:39;;;;;;;;;;;;;;;;;;1025068;29;19910;-81
2021/07/15 00:30:09;;;;;;;;;;;;;;;;;;1021328;29;20386;-79
2021/07/15 00:30:39;;;;;;;;;;;;;;;;;;1029114;28;20008;-80
2021/07/15 00:31:10;;;;;;;;;;;;;;;;;;1029339;28;19906;-81
2021/07/15 00:31:40;;;;;;;;;;;;;;;;;;1029420;28;19911;-80
2021/07/15 00:32:10;;;;;;;;;;;;;;;;;;1029641;28;20380;-82
2021/07/15 00:32:40;;;;;;;;;;;;;;;;;;1025485;28;19918;-80
2021/07/15 00:33:11;;;;;;;;;;;;;;;;;;1025568;28;19950;-82
2021/07/15 00:33:41;;;;;;;;;;;;;;;;;;1025599;29;19911;-82
2021/07/15 00:34:11;;;;;;;;;;;;;;;;;;1021333;29;20076;-80
2021/07/15 00:34:41;;;;;;;;;;;;;;;;;;1021449;29;20019;-81
2021/07/15 00:35:12;;;;;;;;;;;;;;;;;;1021146;29;20369;-81
2021/07/15 00:35:42;;;;;;;;;;;;;;;;;;1021197;29;19907;-80
2021/07/15 00:36:13;;;;;;;;;;;;;;;;;;1025262;29;19914;-79
2021/07/15 00:36:43;;;;;;;;;;;;;;;;;;1025095;28;19907;-80
2021/07/15 00:37:13;;;;;;;;;;;;;;;;;;1029263;28;19906;-81
2021/07/15 00:37:44;;;;;;;;;;;;;;;;;;1033109;28;19913;-80
2021/07/15 00:38:14;;;;;;;;;;;;;;;;;;1029141;28;19910;-79
2021/07/15 00:38:44;;;;;;;;;;;;;;;;;;1029308;28;20336;-79
2021/07/15 00:39:15;;;;;;;;;;;;;;;;;;1025148;29;19906;-80
2021/07/15 00:39:46;;;;;;;;;;;;;;;;;;1017881;29;19915;-79
2021/07/15 00:40:16;;;;;;;;;;;;;;;;;;1021140;29;19911;-82
2021/07/15 00:40:46;;;;;;;;;;;;;;;;;;1021720;29;19910;-81
2021/07/15 00:41:16;;;;;;;;;;;;;;;;;;1021183;29;19971;-78
2021/07/15 00:41:46;;;;;;;;;;;;;;;;;;1025089;29;20114;-80
2021/07/15 00:42:17;;;;;;;;;;;;;;;;;;1025167;29;19911;-79
2021/07/15 00:42:47;;;;;;;;;;;;;;;;;;1025052;28;19911;-79
2021/07/15 00:43:17;;;;;;;;;;;;;;;;;;1029277;28;19917;-79
2021/07/15 00:43:48;;;;;;;;;;;;;;;;;;1029319;28;19937;-79
2021/07/15 00:44:18;;;;;;;;;;;;;;;;;;1025022;29;19961;-79
2021/07/15 00:44:48;;;;;;;;;;;;;;;;;;1029105;28;19976;-79
2021/07/15 00:45:18;;;;;;;;;;;;;;;;;;1025241;29;19911;-80
2021/07/15 00:45:49;;;;;;;;;;;;;;;;;;1025170;29;19934;-80
2021/07/15 00:46:19;;;;;;;;;;;;;;;;;;1022087;29;19942;-79
2021/07/15 00:46:49;;;;;;;;;;;;;;;;;;1018287;29;19915;-78
2021/07/15 00:47:19;;;;;;;;;;;;;;;;;;1028543;28;19907;-79
2021/07/15 00:47:50;;;;;;;;;;;;;;;;;;1032322;28;20013;-81
2021/07/15 00:48:20;;;;;;;;;;;;;;;;;;1032256;28;19910;-82
2021/07/15 00:48:50;;;;;;;;;;;;;;;;;;1027933;29;19911;-81
2021/07/15 00:49:20;;;;;;;;;;;;;;;;;;1028329;29;19918;-79
2021/07/15 00:49:51;;;;;;;;;;;;;;;;;;1028988;28;19917;-78
2021/07/15 00:50:21;;;;;;;;;;;;;;;;;;1028482;28;20384;-78
2021/07/15 00:50:51;;;;;;;;;;;;;;;;;;1028298;28;19911;-78
2021/07/15 00:51:21;;;;;;;;;;;;;;;;;;1027057;29;19966;-79
2021/07/15 00:51:52;;;;;;;;;;;;;;;;;;1021186;29;19968;-78
2021/07/15 00:52:22;;;;;;;;;;;;;;;;;;1025077;28;19917;-79
2021/07/15 00:52:53;;;;;;;;;;;;;;;;;;1021003;29;19910;-79
2021/07/15 00:53:23;;;;;;;;;;;;;;;;;;1028816;28;19993;-78
2021/07/15 00:53:54;;;;;;;;;;;;;;;;;;1028993;28;19926;-79
2021/07/15 00:54:24;;;;;;;;;;;;;;;;;;1028887;28;19910;-79
2021/07/15 00:54:54;;;;;;;;;;;;;;;;;;1025050;28;20008;-79
2021/07/15 00:55:25;;;;;;;;;;;;;;;;;;1024972;28;19919;-78
2021/07/15 00:55:55;;;;;;;;;;;;;;;;;;1025131;29;19934;-80
2021/07/15 00:56:25;;;;;;;;;;;;;;;;;;1021006;29;19907;-79
2021/07/15 00:56:56;;;;;;;;;;;;;;;;;;1013220;29;19915;-78
2021/07/15 00:57:26;;;;;;;;;;;;;;;;;;1013251;29;20005;-79
2021/07/15 00:57:57;;;;;;;;;;;;;;;;;;1017414;29;19962;-81
2021/07/15 00:58:27;;;;;;;;;;;;;;;;;;1029265;28;19911;-79
2021/07/15 00:58:57;;;;;;;;;;;;;;;;;;1033062;28;19917;-80
2021/07/15 00:59:27;;;;;;;;;;;;;;;;;;1021059;28;19911;-79
2021/07/15 00:59:58;;;;;;;;;;;;;;;;;;1024969;29;19958;-79
2021/07/15 01:00:28;;;;;;;;;;;;;;;;;;1021167;29;19921;-79
2021/07/15 01:00:58;;;;;;;;;;;;;;;;;;1025009;29;19983;-79
2021/07/15 01:01:28;;;;;;;;;;;;;;;;;;1024945;28;20067;-80
2021/07/15 01:01:58;;;;;;;;;;;;;;;;;;1020975;29;20450;-79
2021/07/15 01:02:29;;;;;;;;;;;;;;;;;;1029028;28;19949;-79
2021/07/15 01:02:59;;;;;;;;;;;;;;;;;;1025281;28;19915;-79
2021/07/15 01:03:29;;;;;;;;;;;;;;;;;;1029150;28;20364;-79
2021/07/15 01:04:00;;;;;;;;;;;;;;;;;;1024778;28;19910;-79
2021/07/15 01:04:30;;;;;;;;;;;;;;;;;;1021172;29;19911;-81
2021/07/15 01:05:00;;;;;;;;;;;;;;;;;;1025061;29;19910;-80
2021/07/15 01:05:32;;;;;;;;;;;;;;;;;;1029381;28;20280;-79
2021/07/15 01:06:03;;;;;;;;;;;;;;;;;;1029510;28;19910;-79
2021/07/15 01:06:35;;;;;;;;;;;;;;;;;;1024770;28;19922;-80
2021/07/15 01:07:05;;;;;;;;;;;;;;;;;;1024315;28;19949;-79
2021/07/15 01:07:36;;;;;;;;;;;;;;;;;;1024708;28;19910;-79
2021/07/15 01:08:07;;;;;;;;;;;;;;;;;;1025151;28;20324;-78
2021/07/15 01:08:38;;;;;;;;;;;;;;;;;;1024553;29;19910;-78
2021/07/15 01:09:08;;;;;;;;;;;;;;;;;;1024673;28;19934;-78
2021/07/15 01:09:39;;;;;;;;;;;;;;;;;;1024723;28;19919;-78
2021/07/15 01:10:09;;;;;;;;;;;;;;;;;;1025177;29;20327;-78
2021/07/15 01:10:40;;;;;;;;;;;;;;;;;;1028893;28;19910;-80
2021/07/15 01:11:10;;;;;;;;;;;;;;;;;;1020875;29;20009;-80
2021/07/15 01:11:40;;;;;;;;;;;;;;;;;;1020706;29;19915;-78
2021/07/15 01:12:10;;;;;;;;;;;;;;;;;;1025123;29;19956;-80
2021/07/15 01:12:41;;;;;;;;;;;;;;;;;;1028869;28;20013;-79
2021/07/15 01:13:11;;;;;;;;;;;;;;;;;;1032837;28;19969;-79
2021/07/15 01:13:41;;;;;;;;;;;;;;;;;;1028974;28;20009;-80
2021/07/15 01:14:11;;;;;;;;;;;;;;;;;;1017068;29;20012;-79
2021/07/15 01:14:42;;;;;;;;;;;;;;;;;;1020988;29;19918;-79
2021/07/15 01:15:12;;;;;;;;;;;;;;;;;;1017027;29;20286;-79
2021/07/15 01:15:42;;;;;;;;;;;;;;;;;;1025058;28;20384;-80
2021/07/15 01:16:12;;;;;;;;;;;;;;;;;;1025387;28;19910;-81
2021/07/15 01:16:43;;;;;;;;;;;;;;;;;;1017302;29;19967;-81
2021/07/15 01:17:13;;;;;;;;;;;;;;;;;;1021219;29;19911;-81
2021/07/15 01:17:43;;;;;;;;;;;;;;;;;;1021484;28;20414;-81
2021/07/15 01:18:13;;;;;;;;;;;;;;;;;;1024956;28;19950;-81
2021/07/15 01:18:44;;;;;;;;;;;;;;;;;;1025525;28;20352;-81
2021/07/15 01:19:14;;;;;;;;;;;;;;;;;;1025286;29;19911;-80
2021/07/15 01:19:44;;;;;;;;;;;;;;;;;;1021549;29;19907;-78
2021/07/15 01:20:15;;;;;;;;;;;;;;;;;;1025132;28;19934;-81
2021/07/15 01:20:45;;;;;;;;;;;;;;;;;;1029635;28;19907;-78
2021/07/15 01:21:15;;;;;;;;;;;;;;;;;;1029442;28;19910;-79
2021/07/15 01:21:45;;;;;;;;;;;;;;;;;;1025451;29;20440;-80
2021/07/15 01:22:16;;;;;;;;;;;;;;;;;;1017548;29;20012;-82
2021/07/15 01:22:46;;;;;;;;;;;;;;;;;;1021628;29;20274;-80
2021/07/15 01:23:16;;;;;;;;;;;;;;;;;;1017112;29;19914;-80
2021/07/15 01:23:46;;;;;;;;;;;;;;;;;;1013084;29;19908;-80
2021/07/15 01:24:17;;;;;;;;;;;;;;;;;;1020763;29;20378;-81
2021/07/15 01:24:47;;;;;;;;;;;;;;;;;;1017163;29;19998;-81
2021/07/15 01:25:17;;;;;;;;;;;;;;;;;;1024682;28;19952;-81
2021/07/15 01:25:47;;;;;;;;;;;;;;;;;;1028862;28;19957;-80
2021/07/15 01:26:18;;;;;;;;;;;;;;;;;;1024769;28;20355;-81
2021/07/15 01:26:48;;;;;;;;;;;;;;;;;;1025023;29;20410;-82
2021/07/15 01:27:18;;;;;;;;;;;;;;;;;;1021000;29;20369;-81
2021/07/15 01:27:49;;;;;;;;;;;;;;;;;;1020981;29;20333;-79
2021/07/15 01:28:19;;;;;;;;;;;;;;;;;;1028864;28;19989;-78
2021/07/15 01:28:49;;;;;;;;;;;;;;;;;;1024973;28;19965;-80
2021/07/15 01:29:19;;;;;;;;;;;;;;;;;;1028806;28;19942;-81
2021/07/15 01:29:50;;;;;;;;;;;;;;;;;;1028879;28;20437;-80
2021/07/15 01:30:20;;;;;;;;;;;;;;;;;;1024825;28;20313;-82
2021/07/15 01:30:50;;;;;;;;;;;;;;;;;;1024948;28;19993;-80
2021/07/15 01:31:21;;;;;;;;;;;;;;;;;;1021147;29;19903;-81
2021/07/15 01:31:51;;;;;;;;;;;;;;;;;;1024642;29;19910;-80
2021/07/15 01:32:21;;;;;;;;;;;;;;;;;;1024810;29;19906;-80
2021/07/15 01:32:51;;;;;;;;;;;;;;;;;;1029107;28;19906;-78
2021/07/15 01:33:22;;;;;;;;;;;;;;;;;;1028831;28;19917;-81
2021/07/15 01:33:52;;;;;;;;;;;;;;;;;;1024838;29;19962;-80
2021/07/15 01:34:22;;;;;;;;;;;;;;;;;;1028928;28;19906;-81
2021/07/15 01:34:53;;;;;;;;;;;;;;;;;;1028765;28;19910;-81
2021/07/15 01:35:23;;;;;;;;;;;;;;;;;;1028925;28;19902;-79
2021/07/15 01:35:53;;;;;;;;;;;;;;;;;;1028795;28;19906;-79
2021/07/15 01:36:24;;;;;;;;;;;;;;;;;;1032821;28;20287;-78
2021/07/15 01:36:54;;;;;;;;;;;;;;;;;;1029032;28;19930;-79
2021/07/15 01:37:24;;;;;;;;;;;;;;;;;;1028826;28;19906;-80
2021/07/15 01:37:54;;;;;;;;;;;;;;;;;;1028941;28;19902;-80
2021/07/15 01:38:25;;;;;;;;;;;;;;;;;;1024809;29;19978;-81
2021/07/15 01:38:55;;;;;;;;;;;;;;;;;;1024978;29;20343;-80
2021/07/15 01:39:25;;;;;;;;;;;;;;;;;;1020767;29;19966;-81
2021/07/15 01:39:55;;;;;;;;;;;;;;;;;;1024916;29;19906;-78
2021/07/15 01:40:26;;;;;;;;;;;;;;;;;;1021082;29;19910;-80
2021/07/15 01:40:56;;;;;;;;;;;;;;;;;;1020996;29;20359;-81
2021/07/15 01:41:26;;;;;;;;;;;;;;;;;;1024753;28;19921;-79
2021/07/15 01:41:56;;;;;;;;;;;;;;;;;;1028912;28;20335;-79
2021/07/15 01:42:27;;;;;;;;;;;;;;;;;;1024945;28;19906;-80
2021/07/15 01:42:57;;;;;;;;;;;;;;;;;;1024786;28;19942;-79
2021/07/15 01:43:27;;;;;;;;;;;;;;;;;;1020957;29;19997;-78
2021/07/15 01:43:58;;;;;;;;;;;;;;;;;;1020972;29;19911;-79
2021/07/15 01:44:28;;;;;;;;;;;;;;;;;;1028928;28;20377;-79
2021/07/15 01:44:58;;;;;;;;;;;;;;;;;;1028907;28;19945;-79
2021/07/15 01:45:28;;;;;;;;;;;;;;;;;;1024772;29;19907;-80
2021/07/15 01:45:58;;;;;;;;;;;;;;;;;;1024793;29;19906;-80
2021/07/15 01:46:29;;;;;;;;;;;;;;;;;;1017033;29;19922;-79
2021/07/15 01:46:59;;;;;;;;;;;;;;;;;;1024812;29;19953;-80
2021/07/15 01:47:29;;;;;;;;;;;;;;;;;;1032690;28;19937;-82
2021/07/15 01:48:00;;;;;;;;;;;;;;;;;;1024888;28;19990;-81
2021/07/15 01:48:30;;;;;;;;;;;;;;;;;;1012947;29;19908;-79
2021/07/15 01:49:00;;;;;;;;;;;;;;;;;;1012977;29;19956;-79
2021/07/15 01:49:30;;;;;;;;;;;;;;;;;;1020661;29;19913;-79
2021/07/15 01:50:01;;;;;;;;;;;;;;;;;;1028759;28;20004;-81
2021/07/15 01:50:31;;;;;;;;;;;;;;;;;;1017185;29;19958;-80
2021/07/15 01:51:01;;;;;;;;;;;;;;;;;;1020008;29;19907;-80
2021/07/15 01:51:31;;;;;;;;;;;;;;;;;;1015978;29;19971;-79
2021/07/15 01:52:02;;;;;;;;;;;;;;;;;;1020447;29;19935;-79
2021/07/15 01:52:32;;;;;;;;;;;;;;;;;;1027864;29;19910;-80
2021/07/15 01:53:02;;;;;;;;;;;;;;;;;;1027102;28;19922;-79
2021/07/15 01:53:33;;;;;;;;;;;;;;;;;;1024724;29;19910;-79
2021/07/15 01:54:03;;;;;;;;;;;;;;;;;;1020850;29;19903;-79
2021/07/15 01:54:34;;;;;;;;;;;;;;;;;;1017032;29;20321;-80
2021/07/15 01:55:04;;;;;;;;;;;;;;;;;;1020790;29;19913;-80
2021/07/15 01:55:34;;;;;;;;;;;;;;;;;;1024531;28;20407;-79
2021/07/15 01:56:05;;;;;;;;;;;;;;;;;;1020858;29;19903;-80
2021/07/15 01:56:36;;;;;;;;;;;;;;;;;;1024736;29;19913;-79
2021/07/15 01:57:06;;;;;;;;;;;;;;;;;;1024533;29;20455;-79
2021/07/15 01:57:37;;;;;;;;;;;;;;;;;;1020649;29;19907;-79
2021/07/15 01:58:09;;;;;;;;;;;;;;;;;;1021106;28;19910;-79
2021/07/15 01:58:39;;;;;;;;;;;;;;;;;;1024270;28;19907;-79
2021/07/15 01:59:09;;;;;;;;;;;;;;;;;;1020567;29;20408;-79
2021/07/15 01:59:39;;;;;;;;;;;;;;;;;;1024796;29;19917;-79
2021/07/15 02:00:10;;;;;;;;;;;;;;;;;;1024833;29;19953;-79
2021/07/15 02:00:40;;;;;;;;;;;;;;;;;;1028495;28;19906;-78
2021/07/15 02:01:10;;;;;;;;;;;;;;;;;;1028512;28;19906;-78
2021/07/15 02:01:40;;;;;;;;;;;;;;;;;;1020120;28;19971;-78
2021/07/15 02:02:11;;;;;;;;;;;;;;;;;;1020396;28;20347;-79
2021/07/15 02:02:41;;;;;;;;;;;;;;;;;;1020284;29;19915;-79
2021/07/15 02:03:11;;;;;;;;;;;;;;;;;;1024252;29;19906;-78
2021/07/15 02:03:42;;;;;;;;;;;;;;;;;;1024267;28;20031;-79
2021/07/15 02:04:12;;;;;;;;;;;;;;;;;;1024313;29;20246;-79
2021/07/15 02:04:42;;;;;;;;;;;;;;;;;;1028202;28;20343;-79
2021/07/15 02:05:12;;;;;;;;;;;;;;;;;;1020067;29;19922;-78
2021/07/15 02:05:43;;;;;;;;;;;;;;;;;;1020242;29;19910;-78
2021/07/15 02:06:13;;;;;;;;;;;;;;;;;;1016322;29;19971;-78
2021/07/15 02:06:44;;;;;;;;;;;;;;;;;;1020498;29;19911;-80
2021/07/15 02:07:15;;;;;;;;;;;;;;;;;;1024242;28;20087;-79
2021/07/15 02:07:45;;;;;;;;;;;;;;;;;;1024504;28;19958;-79
2021/07/15 02:08:15;;;;;;;;;;;;;;;;;;1016473;29;19982;-79
2021/07/15 02:08:45;;;;;;;;;;;;;;;;;;1016859;28;19972;-80
2021/07/15 02:09:16;;;;;;;;;;;;;;;;;;1021105;29;19941;-79
2021/07/15 02:09:46;;;;;;;;;;;;;;;;;;1021423;29;20002;-81
2021/07/15 02:10:49;;;;;;;;;;;;;;;;;;1023179;29;19969;-80
2021/07/15 02:11:19;;;;;;;;;;;;;;;;;;1025489;28;20382;-79
2021/07/15 02:11:49;;;;;;;;;;;;;;;;;;1032289;28;19977;-79
2021/07/15 02:12:20;;;;;;;;;;;;;;;;;;1024586;29;19907;-79
2021/07/15 02:13:23;;;;;;;;;;;;;;;;;;1018914;29;20427;-79
2021/07/15 02:13:54;;;;;;;;;;;;;;;;;;1020968;29;19962;-79
2021/07/15 02:14:24;;;;;;;;;;;;;;;;;;1024364;29;20343;-79
2021/07/15 02:15:27;;;;;;;;;;;;;;;;;;1025890;28;19961;-79
2021/07/15 02:15:57;;;;;;;;;;;;;;;;;;1028851;28;19910;-79
2021/07/15 02:17:05;;;;;;;;;;;;;;;;;;1034191;28;19933;-78
2021/07/15 02:17:35;;;;;;;;;;;;;;;;;;1030970;28;19914;-79
2021/07/15 02:18:06;;;;;;;;;;;;;;;;;;1028046;28;19903;-78
2021/07/15 02:18:36;;;;;;;;;;;;;;;;;;1024727;29;20340;-80
2021/07/15 02:19:06;;;;;;;;;;;;;;;;;;1024727;28;19907;-79
2021/07/15 02:19:36;;;;;;;;;;;;;;;;;;1028431;28;20463;-79
2021/07/15 02:20:07;;;;;;;;;;;;;;;;;;1028924;28;19933;-79
2021/07/15 02:20:37;;;;;;;;;;;;;;;;;;1028974;28;19907;-79
2021/07/15 02:21:07;;;;;;;;;;;;;;;;;;1032895;28;20406;-79
2021/07/15 02:21:37;;;;;;;;;;;;;;;;;;1032862;28;19909;-79
2021/07/15 02:22:08;;;;;;;;;;;;;;;;;;1033100;28;19941;-79
2021/07/15 02:22:39;;;;;;;;;;;;;;;;;;1029175;28;19906;-79
2021/07/15 02:23:09;;;;;;;;;;;;;;;;;;1025125;28;19906;-79
2021/07/15 02:23:39;;;;;;;;;;;;;;;;;;1032931;28;19906;-79
2021/07/15 02:24:09;;;;;;;;;;;;;;;;;;1036887;28;19906;-79
2021/07/15 02:24:40;;;;;;;;;;;;;;;;;;1036816;28;19905;-79
2021/07/15 02:25:10;;;;;;;;;;;;;;;;;;1039145;28;19905;-78
2021/07/15 02:25:43;;;;;;;;;;;;;;;;;;1035441;28;19906;-79
2021/07/15 02:26:13;;;;;;;;;;;;;;;;;;1037700;28;19970;-79
2021/07/15 02:26:44;;;;;;;;;;;;;;;;;;1037923;28;19977;-79
2021/07/15 02:27:14;;;;;;;;;;;;;;;;;;1038089;28;20351;-80
2021/07/15 02:27:45;;;;;;;;;;;;;;;;;;1037726;28;20021;-79
2021/07/15 02:28:15;;;;;;;;;;;;;;;;;;1033789;28;19906;-79
2021/07/15 02:28:45;;;;;;;;;;;;;;;;;;1038191;28;19905;-80
2021/07/15 02:29:16;;;;;;;;;;;;;;;;;;1038288;28;19940;-80
2021/07/15 02:29:46;;;;;;;;;;;;;;;;;;1033183;28;19906;-80
2021/07/15 02:30:16;;;;;;;;;;;;;;;;;;1032894;28;19906;-80
2021/07/15 02:30:46;;;;;;;;;;;;;;;;;;1025062;28;19938;-80
2021/07/15 02:31:17;;;;;;;;;;;;;;;;;;1024879;29;19930;-79
2021/07/15 02:31:47;;;;;;;;;;;;;;;;;;1024859;28;19906;-79
2021/07/15 02:32:17;;;;;;;;;;;;;;;;;;1029249;28;19907;-80
2021/07/15 02:32:48;;;;;;;;;;;;;;;;;;1033190;28;20004;-80
2021/07/15 02:33:18;;;;;;;;;;;;;;;;;;1033054;28;19906;-79
2021/07/15 02:33:48;;;;;;;;;;;;;;;;;;1033202;28;19940;-80
2021/07/15 02:34:18;;;;;;;;;;;;;;;;;;1033165;28;19984;-81
2021/07/15 02:34:49;;;;;;;;;;;;;;;;;;1032875;28;19913;-79
2021/07/15 02:35:19;;;;;;;;;;;;;;;;;;1028968;28;20339;-78
2021/07/15 02:35:49;;;;;;;;;;;;;;;;;;1028776;28;19913;-79
2021/07/15 02:36:20;;;;;;;;;;;;;;;;;;1025035;29;19907;-79
2021/07/15 02:36:50;;;;;;;;;;;;;;;;;;1024454;28;19950;-78
2021/07/15 02:37:20;;;;;;;;;;;;;;;;;;1028289;28;19965;-78
2021/07/15 02:37:51;;;;;;;;;;;;;;;;;;1032603;28;19906;-78
2021/07/15 02:38:22;;;;;;;;;;;;;;;;;;1032505;28;19929;-79
2021/07/15 02:38:52;;;;;;;;;;;;;;;;;;1032821;28;20012;-79
2021/07/15 02:39:22;;;;;;;;;;;;;;;;;;1028427;28;19969;-78
2021/07/15 02:39:53;;;;;;;;;;;;;;;;;;1028829;28;19965;-78
2021/07/15 02:40:23;;;;;;;;;;;;;;;;;;1032581;28;20005;-79
2021/07/15 02:40:53;;;;;;;;;;;;;;;;;;1032559;28;19969;-81
2021/07/15 02:41:23;;;;;;;;;;;;;;;;;;1036609;28;19945;-80
2021/07/15 02:41:54;;;;;;;;;;;;;;;;;;1036553;28;19910;-81
2021/07/15 02:42:24;;;;;;;;;;;;;;;;;;1032544;28;19906;-79
2021/07/15 02:42:54;;;;;;;;;;;;;;;;;;1028727;28;19949;-79
2021/07/15 02:43:25;;;;;;;;;;;;;;;;;;1028755;28;19910;-79
2021/07/15 02:43:55;;;;;;;;;;;;;;;;;;1024742;28;20391;-79
2021/07/15 02:44:25;;;;;;;;;;;;;;;;;;1032522;28;19906;-79
2021/07/15 02:44:55;;;;;;;;;;;;;;;;;;1028515;28;19910;-79
2021/07/15 02:45:26;;;;;;;;;;;;;;;;;;1028582;28;19933;-79
2021/07/15 02:45:56;;;;;;;;;;;;;;;;;;1028661;28;19917;-78
2021/07/15 02:46:26;;;;;;;;;;;;;;;;;;1028497;28;19941;-78
2021/07/15 02:46:57;;;;;;;;;;;;;;;;;;1028493;28;19978;-78
2021/07/15 02:47:27;;;;;;;;;;;;;;;;;;1028549;28;19916;-80
2021/07/15 02:47:57;;;;;;;;;;;;;;;;;;1032477;28;20024;-82
2021/07/15 02:48:27;;;;;;;;;;;;;;;;;;1024495;29;19917;-80
2021/07/15 02:48:58;;;;;;;;;;;;;;;;;;1024461;29;19914;-80
2021/07/15 02:49:28;;;;;;;;;;;;;;;;;;1028372;28;19960;-79
2021/07/15 02:49:58;;;;;;;;;;;;;;;;;;1024684;29;19957;-78
2021/07/15 02:50:28;;;;;;;;;;;;;;;;;;1028628;28;19911;-79
2021/07/15 02:50:59;;;;;;;;;;;;;;;;;;1032484;28;19910;-78
2021/07/15 02:51:30;;;;;;;;;;;;;;;;;;1032745;28;19914;-79
2021/07/15 02:52:00;;;;;;;;;;;;;;;;;;1032546;28;19921;-78
2021/07/15 02:52:30;;;;;;;;;;;;;;;;;;1020495;29;19934;-79
2021/07/15 02:53:00;;;;;;;;;;;;;;;;;;1024714;29;19919;-78
2021/07/15 02:53:31;;;;;;;;;;;;;;;;;;1020744;29;19954;-79
2021/07/15 02:54:01;;;;;;;;;;;;;;;;;;1024466;29;19914;-78
2021/07/15 02:54:31;;;;;;;;;;;;;;;;;;1028535;28;19910;-79
2021/07/15 02:55:01;;;;;;;;;;;;;;;;;;1024435;28;19907;-79
2021/07/15 02:55:32;;;;;;;;;;;;;;;;;;1024412;29;20418;-79
2021/07/15 02:56:02;;;;;;;;;;;;;;;;;;1020661;29;19969;-80
2021/07/15 02:56:32;;;;;;;;;;;;;;;;;;1024533;28;19942;-79
2021/07/15 02:57:02;;;;;;;;;;;;;;;;;;1032684;28;19965;-81
2021/07/15 02:57:33;;;;;;;;;;;;;;;;;;1032562;28;19924;-80
2021/07/15 02:58:03;;;;;;;;;;;;;;;;;;1032490;28;19937;-80
2021/07/15 02:58:33;;;;;;;;;;;;;;;;;;1024474;29;19911;-78
2021/07/15 02:59:04;;;;;;;;;;;;;;;;;;1024506;29;19959;-79
2021/07/15 02:59:34;;;;;;;;;;;;;;;;;;1024554;29;19906;-78
2021/07/15 03:00:04;;;;;;;;;;;;;;;;;;1028758;28;19913;-78
2021/07/15 03:00:34;;;;;;;;;;;;;;;;;;1024529;28;19906;-80
2021/07/15 03:01:04;;;;;;;;;;;;;;;;;;1024552;29;20540;-80
2021/07/15 03:01:35;;;;;;;;;;;;;;;;;;1028647;28;20049;-79
2021/07/15 03:02:05;;;;;;;;;;;;;;;;;;1024422;29;19990;-79
2021/07/15 03:02:35;;;;;;;;;;;;;;;;;;1032876;28;19902;-79
2021/07/15 03:03:06;;;;;;;;;;;;;;;;;;1028729;28;20000;-80
2021/07/15 03:03:36;;;;;;;;;;;;;;;;;;1024532;29;19973;-79
2021/07/15 03:04:07;;;;;;;;;;;;;;;;;;1028444;28;19906;-79
2021/07/15 03:04:37;;;;;;;;;;;;;;;;;;1028756;28;19906;-79
2021/07/15 03:05:07;;;;;;;;;;;;;;;;;;1032567;28;19906;-79
2021/07/15 03:05:37;;;;;;;;;;;;;;;;;;1032618;28;19909;-79
2021/07/15 03:06:08;;;;;;;;;;;;;;;;;;1032551;28;20056;-79
2021/07/15 03:06:38;;;;;;;;;;;;;;;;;;1024530;29;20069;-79
2021/07/15 03:07:08;;;;;;;;;;;;;;;;;;1024812;29;19913;-79
2021/07/15 03:07:38;;;;;;;;;;;;;;;;;;1020630;29;19903;-78
2021/07/15 03:08:09;;;;;;;;;;;;;;;;;;1024486;29;19982;-79
2021/07/15 03:08:39;;;;;;;;;;;;;;;;;;1032655;28;19902;-79
2021/07/15 03:09:11;;;;;;;;;;;;;;;;;;1032454;28;19906;-80
2021/07/15 03:09:41;;;;;;;;;;;;;;;;;;1036405;28;19988;-79
2021/07/15 03:10:11;;;;;;;;;;;;;;;;;;1032665;28;20004;-80
2021/07/15 03:10:41;;;;;;;;;;;;;;;;;;1032220;28;19917;-79
2021/07/15 03:11:12;;;;;;;;;;;;;;;;;;1032465;28;19910;-80
2021/07/15 03:11:42;;;;;;;;;;;;;;;;;;1032511;28;20004;-79
2021/07/15 03:12:13;;;;;;;;;;;;;;;;;;1028542;28;19906;-79
2021/07/15 03:12:43;;;;;;;;;;;;;;;;;;1032554;28;20414;-79
2021/07/15 03:13:13;;;;;;;;;;;;;;;;;;1024526;28;19907;-79
2021/07/15 03:13:43;;;;;;;;;;;;;;;;;;1024667;29;20007;-79
2021/07/15 03:14:14;;;;;;;;;;;;;;;;;;1024694;29;20407;-79
2021/07/15 03:14:44;;;;;;;;;;;;;;;;;;1020641;29;19911;-79
2021/07/15 03:15:14;;;;;;;;;;;;;;;;;;1024660;28;19954;-80
2021/07/15 03:15:45;;;;;;;;;;;;;;;;;;1028497;28;19906;-79
2021/07/15 03:16:15;;;;;;;;;;;;;;;;;;1028663;28;20367;-80
2021/07/15 03:16:45;;;;;;;;;;;;;;;;;;1032488;28;19906;-80
2021/07/15 03:17:15;;;;;;;;;;;;;;;;;;1024611;29;20320;-80
2021/07/15 03:17:46;;;;;;;;;;;;;;;;;;1032404;28;19917;-79
2021/07/15 03:18:16;;;;;;;;;;;;;;;;;;1028375;28;20419;-81
2021/07/15 03:18:46;;;;;;;;;;;;;;;;;;1032488;28;19909;-80
2021/07/15 03:19:16;;;;;;;;;;;;;;;;;;1028642;28;19992;-80
2021/07/15 03:19:47;;;;;;;;;;;;;;;;;;1028484;28;20392;-78
2021/07/15 03:20:17;;;;;;;;;;;;;;;;;;1020434;29;19911;-78
2021/07/15 03:20:47;;;;;;;;;;;;;;;;;;1024627;29;20390;-79
2021/07/15 03:21:17;;;;;;;;;;;;;;;;;;1028853;28;20000;-80
2021/07/15 03:21:48;;;;;;;;;;;;;;;;;;1024752;28;19942;-79
2021/07/15 03:22:18;;;;;;;;;;;;;;;;;;1032671;28;19913;-79
2021/07/15 03:22:48;;;;;;;;;;;;;;;;;;1032587;28;20004;-79
2021/07/15 03:23:18;;;;;;;;;;;;;;;;;;1032456;28;20403;-79
2021/07/15 03:23:49;;;;;;;;;;;;;;;;;;1024199;28;19911;-78
2021/07/15 03:24:19;;;;;;;;;;;;;;;;;;1028433;28;19906;-79
2021/07/15 03:24:49;;;;;;;;;;;;;;;;;;1024500;29;19961;-78
2021/07/15 03:25:19;;;;;;;;;;;;;;;;;;1024464;29;19997;-79
2021/07/15 03:25:50;;;;;;;;;;;;;;;;;;1024476;29;19954;-79
2021/07/15 03:26:20;;;;;;;;;;;;;;;;;;1020572;29;19911;-81
2021/07/15 03:26:50;;;;;;;;;;;;;;;;;;1024566;29;20308;-80
2021/07/15 03:27:21;;;;;;;;;;;;;;;;;;1028424;28;19910;-80
2021/07/15 03:27:51;;;;;;;;;;;;;;;;;;1028520;28;19910;-80
2021/07/15 03:28:21;;;;;;;;;;;;;;;;;;1024455;29;19982;-79
2021/07/15 03:28:51;;;;;;;;;;;;;;;;;;1027048;29;19982;-80
2021/07/15 03:29:22;;;;;;;;;;;;;;;;;;1027844;29;19982;-80